createdAt,value
2023-03-11T00:01:31.793Z,33.03
2023-03-11T00:04:00.965Z,34.27
2023-03-11T00:06:30.218Z,33.27
2023-03-11T00:09:02.939Z,32.73
2023-03-11T00:11:31.683Z,31.70
2023-03-11T00:14:01.515Z,36.30
2023-03-11T00:16:30.037Z,38.53
2023-03-11T00:19:02.023Z,38.73
2023-03-11T00:21:35.700Z,36.47
2023-03-11T00:24:08.875Z,36.67
2023-03-11T00:26:37.724Z,36.07
2023-03-11T00:29:06.492Z,38.93
2023-03-11T00:31:35.728Z,34.13
2023-03-11T00:34:21.880Z,38.57
2023-03-11T00:36:53.241Z,42.73
2023-03-11T00:39:23.579Z,35.03
2023-03-11T00:41:56.931Z,35.70
2023-03-11T00:44:25.418Z,35.97
2023-03-11T00:46:53.271Z,36.30
2023-03-11T00:49:21.303Z,33.57
2023-03-11T00:51:51.926Z,35.50
2023-03-11T00:54:20.316Z,35.97
2023-03-11T00:56:48.660Z,35.47
2023-03-11T00:59:19.326Z,34.57
2023-03-11T01:01:47.897Z,37.53
2023-03-11T01:04:16.973Z,36.03
2023-03-11T01:06:46.321Z,36.20
2023-03-11T01:09:16.337Z,32.40
2023-03-11T01:11:45.903Z,33.90
2023-03-11T01:14:31.933Z,34.33
2023-03-11T01:16:59.978Z,32.40
2023-03-11T01:19:27.932Z,30.67
2023-03-11T01:21:55.832Z,35.10
2023-03-11T01:24:24.825Z,33.90
2023-03-11T01:26:56.869Z,27.97
2023-03-11T01:29:25.861Z,28.17
2023-03-11T01:31:53.882Z,30.47
2023-03-11T01:34:21.920Z,31.77
2023-03-11T01:36:55.770Z,33.07
2023-03-11T01:39:23.892Z,32.50
2023-03-11T01:41:53.591Z,25.13
2023-03-11T01:44:22.423Z,25.30
2023-03-11T01:46:54.111Z,27.47
2023-03-11T01:49:27.303Z,21.57
2023-03-11T01:52:01.363Z,22.00
2023-03-11T01:54:32.345Z,21.47
2023-03-11T01:57:02.099Z,22.73
2023-03-11T01:59:34.727Z,23.40
2023-03-11T02:02:28.819Z,21.13
2023-03-11T02:04:57.458Z,19.83
2023-03-11T02:07:25.772Z,22.70
2023-03-11T02:10:02.528Z,19.93
2023-03-11T02:12:31.933Z,19.17
2023-03-11T02:15:00.785Z,19.20
2023-03-11T02:17:35.814Z,17.83
2023-03-11T02:20:35.368Z,17.43
2023-03-11T02:23:03.518Z,17.77
2023-03-11T02:25:37.569Z,16.20
2023-03-11T02:28:10.050Z,17.23
2023-03-11T02:30:40.706Z,18.27
2023-03-11T02:33:10.997Z,18.60
2023-03-11T02:35:42.636Z,17.87
2023-03-11T02:38:11.636Z,17.33
2023-03-11T02:40:49.952Z,18.03
2023-03-11T02:43:22.594Z,16.90
2023-03-11T02:45:51.033Z,17.63
2023-03-11T02:48:25.019Z,16.30
2023-03-11T02:50:53.844Z,18.10
2023-03-11T02:53:22.468Z,17.67
2023-03-11T02:55:50.517Z,17.33
2023-03-11T02:58:18.646Z,16.87
2023-03-11T03:00:50.542Z,17.57
2023-03-11T03:03:18.671Z,17.67
2023-03-11T03:05:50.262Z,17.10
2023-03-11T03:08:21.848Z,17.43
2023-03-11T03:10:50.328Z,17.03
2023-03-11T03:13:18.393Z,18.87
2023-03-11T03:15:47.319Z,18.80
2023-03-11T03:18:17.101Z,18.63
2023-03-11T03:20:45.280Z,18.90
2023-03-11T03:23:14.458Z,18.10
2023-03-11T03:25:44.038Z,19.77
2023-03-11T03:28:15.388Z,19.57
2023-03-11T03:30:45.690Z,20.13
2023-03-11T03:33:14.009Z,21.43
2023-03-11T03:35:44.940Z,20.57
2023-03-11T03:38:15.484Z,21.37
2023-03-11T03:40:47.881Z,21.47
2023-03-11T03:43:15.781Z,20.67
2023-03-11T03:45:45.613Z,22.53
2023-03-11T03:48:13.778Z,24.17
2023-03-11T03:50:44.675Z,25.57
2023-03-11T03:53:12.700Z,23.47
2023-03-11T03:55:40.679Z,23.00
2023-03-11T03:58:09.236Z,24.87
2023-03-11T04:00:37.795Z,25.17
2023-03-11T04:03:07.028Z,27.73
2023-03-11T04:05:35.411Z,22.93
2023-03-11T04:08:03.610Z,24.50
2023-03-11T04:10:32.748Z,21.60
2023-03-11T04:13:00.994Z,21.83
2023-03-11T04:15:29.833Z,21.83
2023-03-11T04:18:05.949Z,21.53
2023-03-11T04:20:34.348Z,20.27
2023-03-11T04:23:02.550Z,19.87
2023-03-11T04:25:30.989Z,18.77
2023-03-11T04:28:00.156Z,17.60
2023-03-11T04:30:29.124Z,17.43
2023-03-11T04:32:57.254Z,17.47
2023-03-11T04:35:29.078Z,16.30
2023-03-11T04:37:59.517Z,16.10
2023-03-11T04:40:28.675Z,16.37
2023-03-11T04:42:58.527Z,16.37
2023-03-11T04:45:26.323Z,15.77
2023-03-11T04:47:54.351Z,15.27
2023-03-11T04:50:22.325Z,14.07
2023-03-11T04:52:50.627Z,14.30
2023-03-11T04:55:21.233Z,14.63
2023-03-11T04:57:51.586Z,12.93
2023-03-11T05:00:25.162Z,12.20
2023-03-11T05:02:53.599Z,10.67
2023-03-11T05:05:22.122Z,10.60
2023-03-11T05:07:50.934Z,10.07
2023-03-11T05:10:22.880Z,10.07
2023-03-11T05:12:51.585Z,11.83
2023-03-11T05:15:21.355Z,15.43
2023-03-11T05:17:49.635Z,15.00
2023-03-11T05:20:19.825Z,13.77
2023-03-11T05:22:49.627Z,14.00
2023-03-11T05:25:18.095Z,13.30
2023-03-11T05:27:56.255Z,13.90
2023-03-11T05:30:28.466Z,14.43
2023-03-11T05:32:59.510Z,14.33
2023-03-11T05:35:27.866Z,12.50
2023-03-11T05:37:56.246Z,13.00
2023-03-11T05:40:37.794Z,11.37
2023-03-11T05:43:10.451Z,12.00
2023-03-11T05:45:40.370Z,12.37
2023-03-11T05:48:09.391Z,12.00
2023-03-11T05:50:41.090Z,12.07
2023-03-11T05:53:09.934Z,12.23
2023-03-11T05:55:38.531Z,12.57
2023-03-11T05:58:07.640Z,11.70
2023-03-11T06:00:37.183Z,12.60
2023-03-11T06:03:23.174Z,11.67
2023-03-11T06:05:51.830Z,11.03
2023-03-11T06:08:23.899Z,11.70
2023-03-11T06:10:54.618Z,11.70
2023-03-11T06:13:23.630Z,12.47
2023-03-11T06:15:52.177Z,13.10
2023-03-11T06:18:27.121Z,13.10
2023-03-11T06:20:59.224Z,13.07
2023-03-11T06:23:28.345Z,12.93
2023-03-11T06:26:01.219Z,12.23
2023-03-11T06:28:30.308Z,11.87
2023-03-11T06:31:07.715Z,12.77
2023-03-11T06:33:35.977Z,12.10
2023-03-11T06:36:05.500Z,12.30
2023-03-11T06:38:37.641Z,12.50
2023-03-11T06:41:06.940Z,12.37
2023-03-11T06:43:35.607Z,12.17
2023-03-11T06:46:10.011Z,12.13
2023-03-11T06:48:38.244Z,13.13
2023-03-11T06:51:06.997Z,10.60
2023-03-11T06:53:36.175Z,12.37
2023-03-11T06:56:11.076Z,10.70
2023-03-11T06:58:41.060Z,11.67
2023-03-11T07:01:15.761Z,11.87
2023-03-11T07:03:47.036Z,11.90
2023-03-11T07:06:21.081Z,12.73
2023-03-11T07:08:50.862Z,12.20
2023-03-11T07:11:21.608Z,11.83
2023-03-11T07:13:49.921Z,13.40
2023-03-11T07:16:21.172Z,12.90
2023-03-11T07:18:50.671Z,12.13
2023-03-11T07:21:21.294Z,13.30
2023-03-11T07:23:53.414Z,12.47
2023-03-11T07:26:22.544Z,13.60
2023-03-11T07:28:50.830Z,12.50
2023-03-11T07:31:23.749Z,12.97
2023-03-11T07:33:53.540Z,12.37
2023-03-11T07:36:24.282Z,13.27
2023-03-11T07:39:04.209Z,13.03
2023-03-11T07:41:35.418Z,14.93
2023-03-11T07:44:06.815Z,13.60
2023-03-11T07:46:35.355Z,14.17
2023-03-11T07:49:04.201Z,12.93
2023-03-11T07:51:35.758Z,13.40
2023-03-11T07:54:04.721Z,13.07
2023-03-11T07:56:34.789Z,12.37
2023-03-11T07:59:04.383Z,11.70
2023-03-11T08:01:41.590Z,11.37
2023-03-11T08:04:14.442Z,11.07
2023-03-11T08:06:47.669Z,9.87
2023-03-11T08:09:15.766Z,10.77
2023-03-11T08:11:46.467Z,9.63
2023-03-11T08:14:15.691Z,9.50
2023-03-11T08:16:48.813Z,8.33
2023-03-11T08:19:16.739Z,7.80
2023-03-11T08:21:44.670Z,10.20
2023-03-11T08:24:14.647Z,8.57
2023-03-11T08:26:43.746Z,7.87
2023-03-11T08:29:12.096Z,7.43
2023-03-11T08:31:40.366Z,8.37
2023-03-11T08:34:10.824Z,8.30
2023-03-11T08:36:39.132Z,7.50
2023-03-11T08:39:07.538Z,7.93
2023-03-11T08:41:36.501Z,8.50
2023-03-11T08:44:08.181Z,9.27
2023-03-11T08:46:39.157Z,9.93
2023-03-11T08:49:07.592Z,9.13
2023-03-11T08:51:37.043Z,9.63
2023-03-11T08:54:10.579Z,9.53
2023-03-11T08:56:40.084Z,9.20
2023-03-11T08:59:09.186Z,8.97
2023-03-11T09:01:38.678Z,9.67
2023-03-11T09:04:06.852Z,9.67
2023-03-11T09:06:44.918Z,10.27
2023-03-11T09:09:14.372Z,9.40
2023-03-11T09:11:42.882Z,9.57
2023-03-11T09:14:11.413Z,10.07
2023-03-11T09:16:40.505Z,9.83
2023-03-11T09:19:08.521Z,10.13
2023-03-11T09:21:37.625Z,10.20
2023-03-11T09:24:10.403Z,10.13
2023-03-11T09:26:39.849Z,9.70
2023-03-11T09:29:07.876Z,9.03
2023-03-11T09:31:36.433Z,9.77
2023-03-11T09:34:05.110Z,9.60
2023-03-11T09:36:33.801Z,9.20
2023-03-11T09:39:04.844Z,9.27
2023-03-11T09:41:58.806Z,9.40
2023-03-11T09:44:48.659Z,8.33
2023-03-11T09:47:29.169Z,8.30
2023-03-11T09:50:15.362Z,8.50
2023-03-11T09:52:57.260Z,8.57
2023-03-11T09:55:28.643Z,8.97
2023-03-11T09:57:58.519Z,9.40
2023-03-11T10:00:26.646Z,8.70
2023-03-11T10:02:55.508Z,9.20
2023-03-11T10:05:28.989Z,10.30
2023-03-11T10:08:16.742Z,10.33
2023-03-11T10:10:52.213Z,10.73
2023-03-11T10:13:34.537Z,11.03
2023-03-11T10:16:30.195Z,10.67
2023-03-11T10:19:08.848Z,11.03
2023-03-11T10:22:15.376Z,9.77
2023-03-11T10:24:58.568Z,9.90
2023-03-11T10:27:33.649Z,9.13
2023-03-11T10:30:29.628Z,10.03
2023-03-11T10:33:12.801Z,9.57
2023-03-11T10:35:42.756Z,9.93
2023-03-11T10:38:35.595Z,10.77
2023-03-11T10:41:39.602Z,10.73
2023-03-11T10:44:15.111Z,10.60
2023-03-11T10:46:43.985Z,10.70
2023-03-11T10:49:16.120Z,11.40
2023-03-11T10:51:50.171Z,11.90
2023-03-11T10:54:28.802Z,11.90
2023-03-11T10:57:04.678Z,15.20
2023-03-11T10:59:38.338Z,12.70
2023-03-11T11:02:43.827Z,11.60
2023-03-11T11:05:20.591Z,11.13
2023-03-11T11:07:50.072Z,10.40
2023-03-11T11:10:25.686Z,9.77
2023-03-11T11:12:59.736Z,9.70
2023-03-11T11:15:27.897Z,9.30
2023-03-11T11:18:26.294Z,8.83
2023-03-11T11:21:07.641Z,8.60
2023-03-11T11:23:49.505Z,7.97
2023-03-11T11:26:21.980Z,8.37
2023-03-11T11:29:15.081Z,7.27
2023-03-11T11:31:45.638Z,7.37
2023-03-11T11:34:35.368Z,7.67
2023-03-11T11:37:06.704Z,7.40
2023-03-11T11:39:52.213Z,6.93
2023-03-11T11:42:21.284Z,6.20
2023-03-11T11:44:53.997Z,6.20
2023-03-11T11:47:35.919Z,5.97
2023-03-11T11:50:07.612Z,6.03
2023-03-11T11:52:38.464Z,6.30
2023-03-11T11:55:25.700Z,6.40
2023-03-11T11:57:54.042Z,6.67
2023-03-11T12:00:46.527Z,6.43
2023-03-11T12:03:40.222Z,7.00
2023-03-11T12:06:18.229Z,6.60
2023-03-11T12:09:24.576Z,7.70
2023-03-11T12:12:17.209Z,8.07
2023-03-11T12:14:48.432Z,7.47
2023-03-11T12:17:18.575Z,8.60
2023-03-11T12:19:53.264Z,8.03
2023-03-11T12:22:46.443Z,7.70
2023-03-11T12:25:25.613Z,6.80
2023-03-11T12:28:15.066Z,8.20
2023-03-11T12:30:47.187Z,8.37
2023-03-11T12:33:25.733Z,7.50
2023-03-11T12:35:59.170Z,7.83
2023-03-11T12:38:33.415Z,7.63
2023-03-11T12:41:31.360Z,7.67
2023-03-11T12:44:22.997Z,7.70
2023-03-11T12:47:03.214Z,7.60
2023-03-11T12:49:43.757Z,8.80
2023-03-11T12:52:11.915Z,8.23
2023-03-11T12:54:45.119Z,8.80
2023-03-11T12:57:19.723Z,7.73
2023-03-11T13:00:19.163Z,7.70
2023-03-11T13:02:59.263Z,7.57
2023-03-11T13:05:45.612Z,7.23
2023-03-11T13:08:25.461Z,7.60
2023-03-11T13:10:56.570Z,6.83
2023-03-11T13:13:36.717Z,7.13
2023-03-11T13:16:15.373Z,7.63
2023-03-11T13:18:45.081Z,7.50
2023-03-11T13:21:34.604Z,6.60
2023-03-11T13:24:34.813Z,6.20
2023-03-11T13:27:14.930Z,7.57
2023-03-11T13:30:01.236Z,6.83
2023-03-11T13:33:17.152Z,7.53
2023-03-11T13:35:52.315Z,7.30
2023-03-11T13:38:29.768Z,6.53
2023-03-11T13:40:58.740Z,6.07
2023-03-11T13:43:27.597Z,5.87
2023-03-11T13:46:01.765Z,7.03
2023-03-11T13:48:46.357Z,7.60
2023-03-11T13:51:23.525Z,6.67
2023-03-11T13:53:57.491Z,6.43
2023-03-11T13:56:32.741Z,6.67
2023-03-11T13:59:39.166Z,6.10
2023-03-11T14:02:17.567Z,6.33
2023-03-11T14:04:51.808Z,5.93
2023-03-11T14:07:39.002Z,5.90
2023-03-11T14:10:26.860Z,6.20
2023-03-11T14:13:07.107Z,6.37
2023-03-11T14:15:45.292Z,5.37
2023-03-11T14:18:39.809Z,5.80
2023-03-11T14:21:14.724Z,5.17
2023-03-11T14:23:48.809Z,6.03
2023-03-11T14:26:35.939Z,5.83
2023-03-11T14:29:17.916Z,6.20
2023-03-11T14:31:47.151Z,6.30
2023-03-11T14:34:19.089Z,6.47
2023-03-11T14:36:49.940Z,6.83
2023-03-11T14:39:36.529Z,6.70
2023-03-11T14:42:04.585Z,6.77
2023-03-11T14:44:36.889Z,7.23
2023-03-11T14:47:30.577Z,6.90
2023-03-11T14:49:59.991Z,6.80
2023-03-11T14:52:42.755Z,7.10
2023-03-11T14:55:35.466Z,6.87
2023-03-11T14:58:11.869Z,7.20
2023-03-11T15:00:45.578Z,7.20
2023-03-11T15:03:23.933Z,7.60
2023-03-11T15:06:07.893Z,6.53
2023-03-11T15:08:44.301Z,6.00
2023-03-11T15:11:12.920Z,6.70
2023-03-11T15:13:44.033Z,6.87
2023-03-11T15:16:24.628Z,7.37
2023-03-11T15:18:55.475Z,7.33
2023-03-11T15:21:25.454Z,8.30
2023-03-11T15:24:00.365Z,8.20
2023-03-11T15:26:30.800Z,7.40
2023-03-11T15:29:19.203Z,7.73
2023-03-11T15:31:48.896Z,7.20
2023-03-11T15:34:17.323Z,7.33
2023-03-11T15:36:59.746Z,7.80
2023-03-11T15:39:33.903Z,8.13
2023-03-11T15:42:06.669Z,7.47
2023-03-11T15:44:42.094Z,7.70
2023-03-11T15:47:15.455Z,8.17
2023-03-11T15:49:44.138Z,8.57
2023-03-11T15:52:13.557Z,8.60
2023-03-11T15:54:54.503Z,8.03
2023-03-11T15:57:26.923Z,9.00
2023-03-11T16:00:01.640Z,8.70
2023-03-11T16:02:31.746Z,9.20
2023-03-11T16:05:01.327Z,8.43
2023-03-11T16:07:38.994Z,8.80
2023-03-11T16:10:10.114Z,8.53
2023-03-11T16:12:49.248Z,8.17
2023-03-11T16:15:33.847Z,9.57
2023-03-11T16:18:09.028Z,10.33
2023-03-11T16:20:48.796Z,9.63
2023-03-11T16:23:23.147Z,10.13
2023-03-11T16:25:54.712Z,8.87
2023-03-11T16:28:23.535Z,9.17
2023-03-11T16:30:54.645Z,9.73
2023-03-11T16:33:23.532Z,8.73
2023-03-11T16:35:52.172Z,8.10
2023-03-11T16:38:23.297Z,7.80
2023-03-11T16:40:59.798Z,8.10
2023-03-11T16:43:29.710Z,8.37
2023-03-11T16:45:59.473Z,7.50
2023-03-11T16:48:33.196Z,8.20
2023-03-11T16:51:03.179Z,7.77
2023-03-11T16:53:31.164Z,8.93
2023-03-11T16:56:01.930Z,7.90
2023-03-11T16:58:30.262Z,7.63
2023-03-11T17:01:00.374Z,7.97
2023-03-11T17:03:34.443Z,8.03
2023-03-11T17:06:09.784Z,18.77
2023-03-11T17:08:40.942Z,7.80
2023-03-11T17:11:15.990Z,8.70
2023-03-11T17:13:44.165Z,8.03
2023-03-11T17:16:12.791Z,8.47
2023-03-11T17:18:42.187Z,8.07
2023-03-11T17:21:14.990Z,7.33
2023-03-11T17:23:43.832Z,7.97
2023-03-11T17:26:15.896Z,7.57
2023-03-11T17:28:45.056Z,9.17
2023-03-11T17:31:15.664Z,7.70
2023-03-11T17:33:44.304Z,9.47
2023-03-11T17:36:17.642Z,8.20
2023-03-11T17:38:47.236Z,8.97
2023-03-11T17:41:17.434Z,8.70
2023-03-11T17:43:46.074Z,7.80
2023-03-11T17:46:16.545Z,8.50
2023-03-11T17:48:48.412Z,9.30
2023-03-11T17:51:20.225Z,9.23
2023-03-11T17:53:50.004Z,8.33
2023-03-11T17:56:22.214Z,11.00
2023-03-11T17:58:51.825Z,8.10
2023-03-11T18:01:22.460Z,7.13
2023-03-11T18:03:51.787Z,7.83
2023-03-11T18:06:21.263Z,7.70
2023-03-11T18:08:55.399Z,8.20
2023-03-11T18:11:28.155Z,7.90
2023-03-11T18:13:56.518Z,8.43
2023-03-11T18:16:28.267Z,8.37
2023-03-11T18:18:58.379Z,8.83
2023-03-11T18:21:29.488Z,8.73
2023-03-11T18:24:01.072Z,8.73
2023-03-11T18:26:32.398Z,9.17
2023-03-11T18:29:01.302Z,9.80
2023-03-11T18:31:34.970Z,9.77
2023-03-11T18:34:05.622Z,10.33
2023-03-11T18:36:36.674Z,10.57
2023-03-11T18:39:11.577Z,10.30
2023-03-11T18:41:42.813Z,10.83
2023-03-11T18:44:19.244Z,9.60
2023-03-11T18:46:47.749Z,10.17
2023-03-11T18:49:17.269Z,8.90
2023-03-11T18:51:48.156Z,9.70
2023-03-11T18:54:16.295Z,8.30
2023-03-11T18:56:45.187Z,9.07
2023-03-11T18:59:17.053Z,8.83
2023-03-11T19:01:45.173Z,8.60
2023-03-11T19:04:13.217Z,8.40
2023-03-11T19:06:41.809Z,9.10
2023-03-11T19:09:11.257Z,8.27
2023-03-11T19:11:56.638Z,8.10
2023-03-11T19:14:25.128Z,7.90
2023-03-11T19:16:57.050Z,7.80
2023-03-11T19:19:26.602Z,7.90
2023-03-11T19:21:54.705Z,9.17
2023-03-11T19:24:24.087Z,8.67
2023-03-11T19:26:52.548Z,7.90
2023-03-11T19:29:21.957Z,8.17
2023-03-11T19:31:51.054Z,9.13
2023-03-11T19:34:23.147Z,9.57
2023-03-11T19:36:51.276Z,8.83
2023-03-11T19:39:19.516Z,8.77
2023-03-11T19:41:47.589Z,8.53
2023-03-11T19:44:20.847Z,9.47
2023-03-11T19:46:49.227Z,8.60
2023-03-11T19:49:17.516Z,8.30
2023-03-11T19:51:50.626Z,8.50
2023-03-11T19:54:22.048Z,8.87
2023-03-11T19:56:51.177Z,9.03
2023-03-11T19:59:19.610Z,9.23
2023-03-11T20:01:47.851Z,8.93
2023-03-11T20:04:16.932Z,9.07
2023-03-11T20:06:45.764Z,8.70
2023-03-11T20:09:17.257Z,8.73
2023-03-11T20:11:49.251Z,7.93
2023-03-11T20:14:19.097Z,8.67
2023-03-11T20:16:47.675Z,8.67
2023-03-11T20:19:15.961Z,9.43
2023-03-11T20:21:45.945Z,8.33
2023-03-11T20:24:14.630Z,8.37
2023-03-11T20:26:43.216Z,8.87
2023-03-11T20:29:11.601Z,8.43
2023-03-11T20:31:42.739Z,13.30
2023-03-11T20:34:12.650Z,9.80
2023-03-11T20:36:44.837Z,9.43
2023-03-11T20:39:16.509Z,9.37
2023-03-11T20:41:45.385Z,10.23
2023-03-11T20:44:14.559Z,9.33
2023-03-11T20:46:43.499Z,10.00
2023-03-11T20:49:12.704Z,11.50
2023-03-11T20:51:44.180Z,10.67
2023-03-11T20:54:15.589Z,10.20
2023-03-11T20:56:44.153Z,10.57
2023-03-11T20:59:15.262Z,10.73
2023-03-11T21:01:43.998Z,10.83
2023-03-11T21:04:16.342Z,11.00
2023-03-11T21:06:50.260Z,12.00
2023-03-11T21:09:23.503Z,12.47
2023-03-11T21:11:57.721Z,11.10
2023-03-11T21:14:28.934Z,10.70
2023-03-11T21:16:57.434Z,11.30
2023-03-11T21:19:25.663Z,11.07
2023-03-11T21:21:57.686Z,11.37
2023-03-11T21:24:25.919Z,12.40
2023-03-11T21:26:56.743Z,11.13
2023-03-11T21:29:27.175Z,11.00
2023-03-11T21:31:55.656Z,10.90
2023-03-11T21:34:24.182Z,10.43
2023-03-11T21:36:54.908Z,10.87
2023-03-11T21:39:23.463Z,11.33
2023-03-11T21:41:55.149Z,11.90
2023-03-11T21:44:23.865Z,12.60
2023-03-11T21:46:52.519Z,12.63
2023-03-11T21:49:23.468Z,14.13
2023-03-11T21:51:51.529Z,15.23
2023-03-11T21:54:19.523Z,13.37
2023-03-11T21:56:47.521Z,13.87
2023-03-11T21:59:40.738Z,14.43
2023-03-11T22:02:16.487Z,14.40
2023-03-11T22:04:46.211Z,14.17
2023-03-11T22:07:14.445Z,14.43
2023-03-11T22:09:45.204Z,13.43
2023-03-11T22:12:15.420Z,12.87
2023-03-11T22:14:44.052Z,13.43
2023-03-11T22:17:13.958Z,12.17
2023-03-11T22:19:42.823Z,12.30
2023-03-11T22:22:11.075Z,11.50
2023-03-11T22:24:39.614Z,11.63
2023-03-11T22:27:07.942Z,11.37
2023-03-11T22:29:38.232Z,11.67
2023-03-11T22:32:11.288Z,11.07
2023-03-11T22:34:39.961Z,11.17
2023-03-11T22:37:08.759Z,11.53
2023-03-11T22:39:37.380Z,11.67
2023-03-11T22:42:05.830Z,11.30
2023-03-11T22:44:34.313Z,10.60
2023-03-11T22:47:02.318Z,11.53
2023-03-11T22:49:30.563Z,12.97
2023-03-11T22:51:58.841Z,10.47
2023-03-11T22:54:26.898Z,10.83
2023-03-11T22:56:56.139Z,11.07
2023-03-11T22:59:27.449Z,11.00
2023-03-11T23:01:55.692Z,11.43
2023-03-11T23:04:24.226Z,10.27
2023-03-11T23:06:54.656Z,10.33
2023-03-11T23:09:23.190Z,10.47
2023-03-11T23:11:52.387Z,11.93
2023-03-11T23:14:30.688Z,10.67
2023-03-11T23:17:10.432Z,11.37
2023-03-11T23:19:40.588Z,11.40
2023-03-11T23:22:10.167Z,11.87
2023-03-11T23:24:43.662Z,10.50
2023-03-11T23:27:11.456Z,10.77
2023-03-11T23:29:39.596Z,11.57
2023-03-11T23:32:08.870Z,11.93
2023-03-11T23:34:38.280Z,11.37
2023-03-11T23:37:07.536Z,11.03
2023-03-11T23:39:36.150Z,11.17
2023-03-11T23:42:18.635Z,10.20
2023-03-11T23:45:00.668Z,10.47
2023-03-11T23:47:29.402Z,9.87
2023-03-11T23:49:58.586Z,10.57
2023-03-11T23:52:32.369Z,10.17
2023-03-11T23:55:00.699Z,11.53
2023-03-11T23:57:28.982Z,10.40
2023-03-11T23:59:57.652Z,9.53
